Time;durP1;ratioP1;P1;durP2;ratioP2;P2;SDS_P1;SDS_P2;PMS_P1;PMS_P2;Temp;Humidity;BMP_temperature;BMP_pressure;BME280_temperature;BME280_humidity;BME280_pressure;Samples;Min_cycle;Max_cycle;Signal;HPM_P1;HPM_P2
2023/10/04 00:01:18;;;;;;;6.82;1.90;;;;;;;13.39;100.00;102584.09;5252593;28;20035;-72
2023/10/04 00:03:48;;;;;;;11.20;2.08;;;;;;;13.34;100.00;102583.66;5255528;28;20028;-71
2023/10/04 00:06:19;;;;;;;15.93;2.97;;;;;;;13.32;100.00;102590.19;5253493;28;20401;-71
2023/10/04 00:08:50;;;;;;;8.23;2.45;;;;;;;13.30;100.00;102592.16;5253108;28;20024;-71
2023/10/04 00:11:20;;;;;;;13.50;2.60;;;;;;;13.26;100.00;102597.00;5251592;28;20024;-71
2023/10/04 00:13:51;;;;;;;9.95;2.17;;;;;;;13.20;100.00;102597.53;5251831;28;20032;-71
2023/10/04 00:16:22;;;;;;;13.30;2.05;;;;;;;13.18;100.00;102605.75;5250389;28;20020;-71
2023/10/04 00:18:59;;;;;;;18.88;2.72;;;;;;;13.13;100.00;102601.78;5248974;28;20028;-71
2023/10/04 00:21:29;;;;;;;17.98;2.47;;;;;;;13.07;100.00;102602.34;5248107;28;20294;-71
2023/10/04 00:24:00;;;;;;;18.05;2.83;;;;;;;13.07;100.00;102597.81;5254339;28;20036;-71
2023/10/04 00:26:30;;;;;;;13.40;2.20;;;;;;;13.05;100.00;102598.94;5253364;28;20091;-71
2023/10/04 00:29:04;;;;;;;10.48;2.05;;;;;;;12.99;100.00;102600.34;5251948;28;20638;-71
2023/10/04 00:31:36;;;;;;;14.70;2.70;;;;;;;12.96;100.00;102596.09;5254105;28;20385;-71
2023/10/04 00:34:08;;;;;;;16.65;2.50;;;;;;;12.93;100.00;102599.06;5250005;28;20020;-70
2023/10/04 00:36:39;;;;;;;15.93;2.95;;;;;;;12.89;100.00;102610.25;5253613;28;20060;-70
2023/10/04 00:39:13;;;;;;;10.23;2.17;;;;;;;12.92;100.00;102607.28;5253620;28;20042;-70
2023/10/04 00:41:48;;;;;;;14.68;2.42;;;;;;;12.91;100.00;102613.66;5252753;28;20401;-70
2023/10/04 00:44:19;;;;;;;17.02;2.53;;;;;;;12.90;100.00;102609.25;5251733;28;20024;-71
2023/10/04 00:46:49;;;;;;;7.53;2.15;;;;;;;12.90;100.00;102611.94;5255923;28;20570;-70
2023/10/04 00:49:20;;;;;;;12.80;2.15;;;;;;;12.88;100.00;102617.47;5251389;28;20060;-71
2023/10/04 00:51:51;;;;;;;16.52;2.65;;;;;;;12.89;100.00;102615.63;5256865;28;20028;-71
2023/10/04 00:54:21;;;;;;;12.88;2.35;;;;;;;12.91;100.00;102629.84;5248553;28;20025;-70
2023/10/04 00:56:52;;;;;;;10.90;2.45;;;;;;;12.96;100.00;102633.81;5253269;28;20069;-71
2023/10/04 00:59:23;;;;;;;19.92;2.45;;;;;;;12.99;100.00;102626.44;5243934;28;20073;-71
2023/10/04 01:01:54;;;;;;;16.13;2.13;;;;;;;12.94;100.00;102622.31;5249902;28;20035;-71
2023/10/04 01:04:25;;;;;;;18.17;2.60;;;;;;;12.92;100.00;102620.75;5252849;28;20103;-71
2023/10/04 01:06:57;;;;;;;14.02;2.25;;;;;;;12.94;100.00;102624.16;5248940;28;20099;-71
2023/10/04 01:09:31;;;;;;;13.25;2.42;;;;;;;12.91;100.00;102617.22;5253580;28;20478;-71
2023/10/04 01:12:04;;;;;;;23.85;3.13;;;;;;;12.91;100.00;102627.13;5254231;28;20077;-71
2023/10/04 01:14:48;;;;;;;12.35;2.45;;;;;;;12.92;100.00;102623.44;5251318;28;20453;-71
2023/10/04 01:17:35;;;;;;;16.00;2.78;;;;;;;12.95;100.00;102626.72;5251655;28;20012;-71
2023/10/04 01:20:13;;;;;;;14.13;3.08;;;;;;;13.25;100.00;102632.16;5249495;28;20032;-71
2023/10/04 01:22:43;;;;;;;23.02;2.80;;;;;;;13.30;100.00;102635.28;5253441;28;20559;-71
2023/10/04 01:25:15;;;;;;;12.93;2.25;;;;;;;13.31;100.00;102631.63;5252371;28;20024;-71
2023/10/04 01:27:46;;;;;;;11.38;2.10;;;;;;;13.34;100.00;102631.34;5253523;28;20039;-71
2023/10/04 01:30:16;;;;;;;14.55;2.38;;;;;;;13.35;100.00;102633.03;5251597;28;20024;-70
2023/10/04 01:32:54;;;;;;;12.82;2.38;;;;;;;13.33;100.00;102629.63;5252217;28;20115;-71
2023/10/04 01:35:25;;;;;;;15.00;2.65;;;;;;;13.31;100.00;102637.03;5252835;28;20545;-71
2023/10/04 01:37:56;;;;;;;13.23;2.50;;;;;;;13.31;100.00;102629.78;5254168;28;20050;-71
2023/10/04 01:40:29;;;;;;;16.58;3.10;;;;;;;13.29;100.00;102629.06;5252475;28;20021;-71
2023/10/04 01:42:59;;;;;;;10.75;2.90;;;;;;;13.27;100.00;102632.91;5251927;28;20397;-71
2023/10/04 01:45:30;;;;;;;16.52;2.72;;;;;;;13.28;100.00;102634.59;5251351;28;20016;-71
2023/10/04 01:48:00;;;;;;;16.35;3.08;;;;;;;13.23;100.00;102634.16;5251779;28;20027;-71
2023/10/04 01:50:31;;;;;;;14.02;2.67;;;;;;;13.28;100.00;102638.13;5250621;28;20028;-71
2023/10/04 01:53:02;;;;;;;16.20;2.67;;;;;;;13.25;100.00;102630.31;5254697;28;20104;-71
2023/10/04 01:55:36;;;;;;;22.90;3.20;;;;;;;13.23;100.00;102628.78;5249690;28;20107;-70
2023/10/04 01:58:08;;;;;;;15.18;2.65;;;;;;;13.21;100.00;102621.69;5254061;28;20519;-71
2023/10/04 02:00:39;;;;;;;17.40;2.75;;;;;;;13.24;100.00;102625.09;5256450;28;20059;-71
2023/10/04 02:03:10;;;;;;;10.68;2.80;;;;;;;13.16;100.00;102623.91;5251284;28;20116;-72
2023/10/04 02:05:41;;;;;;;15.57;2.40;;;;;;;13.18;100.00;102626.47;5261780;28;20121;-70
2023/10/04 02:08:14;;;;;;;12.05;2.80;;;;;;;13.21;100.00;102626.19;5253233;28;20112;-71
2023/10/04 02:10:45;;;;;;;9.40;2.40;;;;;;;13.18;100.00;102624.63;5255089;28;20023;-71
2023/10/04 02:13:17;;;;;;;19.98;2.60;;;;;;;13.27;100.00;102622.13;5252446;28;20029;-71
2023/10/04 02:15:50;;;;;;;12.98;2.60;;;;;;;13.26;100.00;102620.41;5253201;28;20035;-71
2023/10/04 02:18:26;;;;;;;13.27;2.85;;;;;;;13.28;100.00;102621.13;5248533;28;20021;-71
2023/10/04 02:20:57;;;;;;;14.93;2.60;;;;;;;13.28;100.00;102613.03;5251470;28;20443;-71
2023/10/04 02:23:29;;;;;;;10.55;2.78;;;;;;;13.25;100.00;102600.69;5248682;28;20529;-71
2023/10/04 02:26:05;;;;;;;16.20;3.88;;;;;;;13.27;100.00;102603.25;5253599;28;20016;-71
2023/10/04 02:28:36;;;;;;;14.50;2.50;;;;;;;13.28;100.00;102603.09;5253564;28;20020;-72
2023/10/04 02:31:13;;;;;;;9.00;2.55;;;;;;;13.28;100.00;102599.56;5257977;28;20017;-72
2023/10/04 02:33:43;;;;;;;14.57;2.70;;;;;;;13.29;100.00;102595.88;5254650;28;20031;-71
2023/10/04 02:36:14;;;;;;;10.32;2.55;;;;;;;13.30;100.00;102598.41;5256296;28;20063;-71
2023/10/04 02:38:44;;;;;;;15.48;2.67;;;;;;;13.27;100.00;102605.94;5258554;28;20036;-71
2023/10/04 02:41:15;;;;;;;19.05;2.53;;;;;;;13.28;100.00;102621.13;5251134;28;20448;-71
2023/10/04 02:43:45;;;;;;;11.18;2.55;;;;;;;13.31;100.00;102634.31;5259019;28;20034;-71
2023/10/04 02:46:20;;;;;;;24.92;3.67;;;;;;;13.27;100.00;102633.75;5252629;28;20459;-71
2023/10/04 02:48:51;;;;;;;19.52;2.63;;;;;;;13.24;100.00;102633.16;5253858;28;20098;-70
2023/10/04 02:51:21;;;;;;;11.60;2.10;;;;;;;13.21;100.00;102636.97;5260241;28;20038;-71
2023/10/04 02:53:51;;;;;;;14.68;2.95;;;;;;;13.17;100.00;102639.09;5252220;28;20033;-71
2023/10/04 02:56:23;;;;;;;10.57;2.65;;;;;;;13.11;100.00;102638.81;5257613;28;20496;-70
2023/10/04 02:58:53;;;;;;;13.65;2.72;;;;;;;13.04;100.00;102635.78;5255122;28;20024;-71
2023/10/04 03:01:26;;;;;;;15.85;2.83;;;;;;;13.02;100.00;102642.34;5256869;28;20155;-71
2023/10/04 03:03:58;;;;;;;14.65;2.90;;;;;;;12.96;100.00;102641.91;5258001;28;20020;-71
2023/10/04 03:06:29;;;;;;;14.07;2.63;;;;;;;12.95;100.00;102648.28;5254190;28;20346;-71
2023/10/04 03:09:01;;;;;;;12.77;2.75;;;;;;;12.91;100.00;102641.47;5250559;28;20125;-71
2023/10/04 03:11:32;;;;;;;21.35;3.83;;;;;;;12.82;100.00;102634.19;5252799;28;20451;-70
2023/10/04 03:14:06;;;;;;;12.13;2.45;;;;;;;12.85;100.00;102646.53;5258399;28;20358;-71
2023/10/04 03:16:40;;;;;;;22.35;2.92;;;;;;;12.84;100.00;102644.81;5256992;28;20485;-71
2023/10/04 03:19:10;;;;;;;11.90;2.70;;;;;;;12.78;100.00;102646.22;5260137;28;20103;-71
2023/10/04 03:21:45;;;;;;;11.07;2.53;;;;;;;12.76;100.00;102655.44;5256135;28;20024;-71
2023/10/04 03:24:18;;;;;;;12.02;2.28;;;;;;;12.68;100.00;102651.59;5253792;28;20478;-71
2023/10/04 03:26:50;;;;;;;14.77;3.15;;;;;;;12.64;100.00;102644.75;5257098;28;20024;-71
2023/10/04 03:29:22;;;;;;;17.88;3.00;;;;;;;12.60;100.00;102645.16;5247834;28;20035;-71
2023/10/04 03:31:53;;;;;;;12.63;2.53;;;;;;;12.54;100.00;102648.41;5261115;28;20035;-71
2023/10/04 03:34:23;;;;;;;18.75;3.05;;;;;;;12.49;100.00;102646.13;5252798;28;20469;-70
2023/10/04 03:36:54;;;;;;;10.98;3.20;;;;;;;12.44;100.00;102653.75;5252993;28;20384;-71
2023/10/04 03:39:26;;;;;;;7.85;2.70;;;;;;;12.35;100.00;102649.16;5253239;28;20034;-71
2023/10/04 03:41:57;;;;;;;12.70;3.17;;;;;;;12.32;100.00;102650.28;5257608;28;20081;-71
2023/10/04 03:44:28;;;;;;;17.02;2.38;;;;;;;12.27;100.00;102641.78;5256364;28;20104;-71
2023/10/04 03:46:58;;;;;;;16.40;2.67;;;;;;;12.26;100.00;102639.22;5257006;28;20020;-71
2023/10/04 03:49:29;;;;;;;13.05;2.60;;;;;;;12.19;100.00;102645.13;5255478;28;20484;-71
2023/10/04 03:51:59;;;;;;;18.33;2.90;;;;;;;12.18;100.00;102648.78;5260608;28;20169;-71
2023/10/04 03:54:30;;;;;;;9.85;2.65;;;;;;;12.12;100.00;102643.09;5260906;28;20024;-71
2023/10/04 03:57:06;;;;;;;17.80;3.45;;;;;;;12.05;100.00;102645.47;5258006;28;20035;-71
2023/10/04 03:59:36;;;;;;;13.88;2.92;;;;;;;12.05;100.00;102636.53;5252644;28;20024;-71
2023/10/04 04:02:11;;;;;;;8.88;2.63;;;;;;;12.02;100.00;102634.97;5258307;28;20024;-71
2023/10/04 04:04:41;;;;;;;11.23;2.47;;;;;;;12.01;100.00;102635.13;5261149;28;20401;-70
2023/10/04 04:07:12;;;;;;;10.38;2.53;;;;;;;11.98;100.00;102633.53;5255097;28;20028;-71
2023/10/04 04:09:43;;;;;;;14.88;2.80;;;;;;;11.99;100.00;102634.38;5260378;28;20032;-71
2023/10/04 04:12:14;;;;;;;13.63;2.90;;;;;;;11.96;100.00;102638.19;5255066;28;20024;-71
2023/10/04 04:14:46;;;;;;;15.82;2.60;;;;;;;11.96;100.00;102640.03;5258071;28;20027;-73
2023/10/04 04:17:16;;;;;;;14.55;2.90;;;;;;;11.93;100.00;102635.75;5253363;28;20039;-71
2023/10/04 04:19:47;;;;;;;18.90;4.43;;;;;;;11.85;100.00;102631.06;5257073;28;20378;-72
2023/10/04 04:22:23;;;;;;;19.38;3.05;;;;;;;11.83;100.00;102637.53;5254655;28;20104;-71
2023/10/04 04:24:54;;;;;;;15.60;2.90;;;;;;;11.86;100.00;102629.22;5247636;28;20048;-71
2023/10/04 04:27:24;;;;;;;16.08;3.33;;;;;;;11.88;100.00;102630.78;5255818;28;20055;-71
2023/10/04 04:29:56;;;;;;;25.45;4.25;;;;;;;11.88;100.00;102629.91;5256702;28;20477;-72
2023/10/04 04:32:27;;;;;;;13.07;3.17;;;;;;;11.85;100.00;102635.59;5253216;28;20044;-71
2023/10/04 04:34:58;;;;;;;22.10;4.07;;;;;;;11.82;100.00;102627.75;5254188;28;20026;-71
2023/10/04 04:37:29;;;;;;;19.80;3.05;;;;;;;11.78;100.00;102629.81;5257445;28;20025;-71
2023/10/04 04:40:00;;;;;;;14.13;3.05;;;;;;;11.72;100.00;102624.97;5258094;28;20020;-71
2023/10/04 04:42:35;;;;;;;15.18;2.40;;;;;;;11.68;100.00;102631.59;5254085;28;20047;-71
2023/10/04 04:45:06;;;;;;;20.73;3.08;;;;;;;11.65;100.00;102634.56;5258312;28;20020;-71
2023/10/04 04:47:38;;;;;;;13.73;2.95;;;;;;;11.64;100.00;102630.97;5255706;28;20986;-71
2023/10/04 04:50:09;;;;;;;16.75;3.42;;;;;;;11.58;100.00;102631.50;5256066;28;20495;-71
2023/10/04 04:52:41;;;;;;;11.70;3.10;;;;;;;11.57;100.00;102634.34;5258010;28;20037;-71
2023/10/04 04:55:14;;;;;;;17.23;3.10;;;;;;;11.52;100.00;102626.66;5252085;28;20526;-71
2023/10/04 04:57:44;;;;;;;16.55;3.28;;;;;;;11.53;100.00;102636.41;5255183;28;20406;-71
2023/10/04 05:00:33;;;;;;;19.23;3.53;;;;;;;11.55;100.00;102645.22;5254084;28;20313;-71
2023/10/04 05:03:04;;;;;;;16.60;3.45;;;;;;;11.55;100.00;102642.53;5248139;28;20365;-71
2023/10/04 05:05:35;;;;;;;16.92;3.70;;;;;;;11.58;100.00;102653.00;5255684;28;20130;-71
2023/10/04 05:08:06;;;;;;;14.18;3.92;;;;;;;11.56;100.00;102654.16;5254414;28;20392;-71
2023/10/04 05:10:38;;;;;;;15.73;3.00;;;;;;;11.55;100.00;102650.59;5253305;28;20030;-71
2023/10/04 05:13:13;;;;;;;17.30;3.15;;;;;;;11.50;100.00;102655.50;5250772;28;20024;-71
2023/10/04 05:15:45;;;;;;;12.90;3.30;;;;;;;11.52;100.00;102656.22;5252820;28;20119;-71
2023/10/04 05:18:17;;;;;;;17.90;3.00;;;;;;;11.49;100.00;102652.94;5254549;28;20285;-71
2023/10/04 05:20:51;;;;;;;18.75;3.80;;;;;;;11.49;100.00;102655.63;5257484;28;20030;-71
2023/10/04 05:23:23;;;;;;;23.00;3.88;;;;;;;11.47;100.00;102663.81;5253755;28;20031;-71
2023/10/04 05:25:54;;;;;;;22.85;3.75;;;;;;;11.45;100.00;102660.41;5249897;28;20507;-71
2023/10/04 05:28:24;;;;;;;10.05;3.45;;;;;;;11.45;100.00;102662.25;5255854;28;20029;-71
2023/10/04 05:30:55;;;;;;;16.05;3.72;;;;;;;11.46;100.00;102662.13;5242548;28;20032;-71
2023/10/04 05:33:27;;;;;;;23.85;4.70;;;;;;;11.44;100.00;102665.91;5241984;28;20028;-71
2023/10/04 05:36:01;;;;;;;17.42;3.15;;;;;;;11.44;100.00;102663.22;5252897;28;20026;-71
2023/10/04 05:38:32;;;;;;;16.30;3.80;;;;;;;11.39;100.00;102660.91;5253434;28;20023;-71
2023/10/04 05:41:03;;;;;;;17.67;3.80;;;;;;;11.39;100.00;102663.59;5250112;28;20021;-71
2023/10/04 05:43:34;;;;;;;22.95;3.88;;;;;;;11.38;100.00;102665.44;5254410;28;20192;-71
2023/10/04 05:46:06;;;;;;;14.35;3.83;;;;;;;11.37;100.00;102661.03;5243226;28;20470;-71
2023/10/04 05:48:37;;;;;;;12.15;3.22;;;;;;;11.34;100.00;102661.28;5250745;28;20024;-71
2023/10/04 05:51:08;;;;;;;22.55;3.80;;;;;;;11.29;100.00;102658.13;5246228;28;20039;-71
2023/10/04 05:53:38;;;;;;;18.33;3.72;;;;;;;11.24;100.00;102657.66;5251337;28;20535;-71
2023/10/04 05:56:09;;;;;;;18.27;3.42;;;;;;;11.20;100.00;102666.13;5255051;28;20031;-71
2023/10/04 05:58:40;;;;;;;17.73;3.40;;;;;;;11.21;100.00;102673.19;5250981;28;20027;-71
2023/10/04 06:01:18;;;;;;;21.83;3.67;;;;;;;11.26;100.00;102679.91;5252159;28;20511;-71
2023/10/04 06:03:49;;;;;;;25.83;4.03;;;;;;;11.29;100.00;102668.88;5252318;28;20077;-71
2023/10/04 06:06:20;;;;;;;23.80;4.15;;;;;;;11.32;100.00;102667.78;5249651;28;20020;-71
2023/10/04 06:08:54;;;;;;;14.80;3.33;;;;;;;11.32;100.00;102670.47;5253767;28;20535;-71
2023/10/04 06:11:25;;;;;;;26.70;4.30;;;;;;;11.32;100.00;102675.84;5250279;28;20049;-71
2023/10/04 06:13:55;;;;;;;17.00;3.78;;;;;;;11.36;100.00;102680.00;5250825;28;20028;-71
2023/10/04 06:16:26;;;;;;;22.23;3.72;;;;;;;11.40;100.00;102679.63;5248377;28;20016;-71
2023/10/04 06:18:58;;;;;;;13.60;3.30;;;;;;;11.44;100.00;102685.56;5249828;28;20042;-71
2023/10/04 06:21:30;;;;;;;22.45;4.07;;;;;;;11.47;100.00;102685.31;5246870;28;20215;-71
2023/10/04 06:24:01;;;;;;;15.60;3.85;;;;;;;11.51;100.00;102683.25;5251691;28;20027;-71
2023/10/04 06:26:31;;;;;;;36.38;4.65;;;;;;;11.61;100.00;102697.63;5251421;28;20012;-72
2023/10/04 06:29:03;;;;;;;16.05;3.20;;;;;;;11.68;100.00;102698.81;5251763;28;20028;-71
2023/10/04 06:31:34;;;;;;;20.65;4.60;;;;;;;11.75;100.00;102704.53;5250296;28;20031;-72
2023/10/04 06:34:04;;;;;;;24.63;3.90;;;;;;;11.88;100.00;102710.59;5250009;28;20409;-71
2023/10/04 06:36:35;;;;;;;12.25;3.80;;;;;;;11.96;100.00;102718.88;5249897;28;20489;-71
2023/10/04 06:39:07;;;;;;;21.42;3.55;;;;;;;12.07;100.00;102708.06;5252319;28;20105;-71
2023/10/04 06:41:37;;;;;;;19.52;4.10;;;;;;;12.16;100.00;102707.28;5249623;28;20389;-71
2023/10/04 06:44:08;;;;;;;18.80;3.55;;;;;;;12.24;100.00;102712.00;5252227;28;20032;-72
2023/10/04 06:46:39;;;;;;;16.58;3.50;;;;;;;12.37;100.00;102714.50;5246761;28;20013;-70
2023/10/04 06:49:09;;;;;;;27.48;3.90;;;;;;;12.59;100.00;102726.94;5250126;28;20060;-71
2023/10/04 06:51:40;;;;;;;19.58;3.72;;;;;;;12.84;100.00;102722.94;5251296;28;20419;-72
2023/10/04 06:54:10;;;;;;;21.75;4.82;;;;;;;13.09;100.00;102735.09;5248963;28;20055;-72
2023/10/04 06:56:41;;;;;;;13.10;3.67;;;;;;;13.48;100.00;102736.91;5253822;28;20056;-71
2023/10/04 06:59:12;;;;;;;15.60;3.28;;;;;;;13.67;100.00;102737.94;5250888;28;20032;-71
2023/10/04 07:01:43;;;;;;;25.45;4.03;;;;;;;14.06;100.00;102738.81;5253879;28;20060;-71
2023/10/04 07:04:13;;;;;;;15.82;3.92;;;;;;;14.25;100.00;102738.75;5249700;28;20396;-71
2023/10/04 07:06:44;;;;;;;24.67;4.43;;;;;;;14.44;100.00;102745.13;5246080;28;20024;-70
2023/10/04 07:09:14;;;;;;;31.05;4.75;;;;;;;14.57;100.00;102737.59;5247418;28;20099;-72
2023/10/04 07:11:45;;;;;;;18.05;3.80;;;;;;;14.84;100.00;102725.97;5250857;28;20030;-72
2023/10/04 07:14:15;;;;;;;16.60;3.03;;;;;;;14.99;100.00;102737.16;5249054;28;20036;-71
2023/10/04 07:16:46;;;;;;;14.35;3.20;;;;;;;15.16;100.00;102736.38;5248897;28;20116;-71
2023/10/04 07:19:16;;;;;;;13.32;2.72;;;;;;;15.26;100.00;102741.69;5248896;28;20035;-72
2023/10/04 07:21:47;;;;;;;12.32;3.30;;;;;;;15.52;100.00;102737.28;5253700;28;20443;-72
2023/10/04 07:24:17;;;;;;;16.48;3.40;;;;;;;15.52;100.00;102741.84;5252188;28;20028;-71
2023/10/04 07:26:48;;;;;;;12.57;3.05;;;;;;;15.76;100.00;102749.38;5256958;28;20016;-72
2023/10/04 07:29:18;;;;;;;15.15;2.90;;;;;;;15.78;100.00;102742.81;5250238;28;20031;-72
2023/10/04 07:31:50;;;;;;;14.23;3.60;;;;;;;15.93;100.00;102740.41;5258846;28;20028;-72
2023/10/04 07:34:23;;;;;;;13.15;3.05;;;;;;;16.25;100.00;102745.22;5251436;28;20146;-72
2023/10/04 07:36:55;;;;;;;13.85;3.00;;;;;;;16.44;100.00;102740.63;5248141;28;20089;-72
2023/10/04 07:39:26;;;;;;;17.10;2.97;;;;;;;16.58;100.00;102745.47;5252296;28;20029;-72
2023/10/04 07:41:56;;;;;;;13.63;3.45;;;;;;;16.44;100.00;102744.19;5255711;28;20020;-72
2023/10/04 07:44:30;;;;;;;17.77;3.33;;;;;;;16.35;100.00;102753.25;5255376;28;20020;-72
2023/10/04 07:47:01;;;;;;;15.35;3.20;;;;;;;16.25;100.00;102755.22;5253661;28;20422;-71
2023/10/04 07:49:32;;;;;;;12.48;3.20;;;;;;;16.15;100.00;102755.31;5248123;28;20119;-73
2023/10/04 07:52:03;;;;;;;25.30;3.95;;;;;;;16.32;100.00;102759.00;5255768;28;20030;-72
2023/10/04 07:54:35;;;;;;;17.63;4.07;;;;;;;16.61;100.00;102752.41;5251307;28;20032;-72
2023/10/04 07:57:06;;;;;;;22.13;3.88;;;;;;;16.71;100.00;102751.31;5254355;28;20111;-72
2023/10/04 07:59:37;;;;;;;21.40;3.58;;;;;;;16.78;100.00;102743.44;5252228;28;20012;-72
2023/10/04 08:02:08;;;;;;;16.38;3.50;;;;;;;16.92;100.00;102744.66;5252353;28;20554;-73
2023/10/04 08:04:39;;;;;;;13.88;3.20;;;;;;;17.30;100.00;102741.44;5254735;28;20020;-72
2023/10/04 08:07:14;;;;;;;16.27;3.40;;;;;;;17.48;100.00;102757.59;5252604;28;20025;-73
2023/10/04 08:09:45;;;;;;;12.75;4.07;;;;;;;17.74;100.00;102752.09;5254950;28;20016;-72
2023/10/04 08:12:19;;;;;;;11.48;2.83;;;;;;;17.67;100.00;102756.47;5249281;28;20032;-72
2023/10/04 08:14:50;;;;;;;19.17;3.60;;;;;;;17.88;100.00;102768.75;5251363;28;20555;-72
2023/10/04 08:17:23;;;;;;;15.18;3.45;;;;;;;17.55;100.00;102760.50;5251768;28;20025;-73
2023/10/04 08:19:54;;;;;;;25.58;4.90;;;;;;;17.80;100.00;102764.13;5245933;28;20428;-73
2023/10/04 08:22:25;;;;;;;22.95;3.47;;;;;;;17.84;100.00;102766.34;5251745;28;20046;-73
2023/10/04 08:24:56;;;;;;;14.50;3.28;;;;;;;17.64;100.00;102778.50;5253357;28;20028;-72
2023/10/04 08:27:27;;;;;;;18.42;3.50;;;;;;;17.68;100.00;102763.59;5252409;28;20493;-71
2023/10/04 08:29:57;;;;;;;13.85;3.17;;;;;;;17.86;100.00;102768.88;5248009;28;20040;-72
2023/10/04 08:32:29;;;;;;;13.20;3.03;;;;;;;18.02;100.00;102773.47;5251126;28;20515;-71
2023/10/04 08:35:00;;;;;;;20.70;4.22;;;;;;;17.86;100.00;102769.75;5252832;28;20046;-72
2023/10/04 08:37:30;;;;;;;20.90;4.13;;;;;;;17.82;100.00;102768.41;5250669;28;20056;-73
2023/10/04 08:40:01;;;;;;;18.05;3.47;;;;;;;17.95;100.00;102762.47;5255551;28;20027;-72
2023/10/04 08:42:33;;;;;;;18.27;3.33;;;;;;;18.25;100.00;102779.94;5250254;28;20035;-72
2023/10/04 08:45:04;;;;;;;16.27;3.47;;;;;;;18.20;100.00;102776.91;5254813;28;20036;-71
2023/10/04 08:47:35;;;;;;;19.27;3.85;;;;;;;18.34;100.00;102778.09;5250377;28;20107;-72
2023/10/04 08:50:13;;;;;;;23.77;3.83;;;;;;;18.35;100.00;102777.06;5248307;28;20048;-72
2023/10/04 08:52:47;;;;;;;18.83;4.75;;;;;;;18.31;100.00;102776.53;5254170;28;20032;-72
2023/10/04 08:55:22;;;;;;;16.23;3.63;;;;;;;18.13;100.00;102772.31;5250260;28;20308;-73
2023/10/04 08:57:53;;;;;;;18.37;3.70;;;;;;;18.16;100.00;102775.53;5255782;28;20178;-72
2023/10/04 09:00:29;;;;;;;21.35;4.00;;;;;;;18.15;100.00;102779.28;5247785;28;20024;-72
2023/10/04 09:03:00;;;;;;;21.98;3.47;;;;;;;18.13;100.00;102777.75;5250130;28;20099;-73
2023/10/04 09:05:33;;;;;;;24.17;3.95;;;;;;;18.36;100.00;102781.47;5248793;28;20186;-72
2023/10/04 09:08:04;;;;;;;18.67;3.42;;;;;;;18.43;100.00;102773.50;5253481;28;20346;-72
2023/10/04 09:10:39;;;;;;;13.20;3.55;;;;;;;18.58;100.00;102775.34;5253186;28;20028;-73
2023/10/04 09:13:10;;;;;;;18.27;4.05;;;;;;;18.58;100.00;102775.34;5250676;28;20027;-72
2023/10/04 09:15:40;;;;;;;18.55;3.53;;;;;;;18.42;100.00;102767.19;5248573;28;20275;-72
2023/10/04 09:18:11;;;;;;;16.95;3.83;;;;;;;18.54;100.00;102767.72;5248406;28;20024;-73
2023/10/04 09:20:42;;;;;;;19.10;3.67;;;;;;;18.23;100.00;102767.56;5249352;28;20029;-72
2023/10/04 09:23:22;;;;;;;14.52;3.72;;;;;;;18.31;100.00;102770.25;5249542;28;20474;-72
2023/10/04 09:25:55;;;;;;;12.93;3.42;;;;;;;18.36;100.00;102771.44;5256302;28;20043;-73
2023/10/04 09:28:38;;;;;;;19.52;3.40;;;;;;;18.54;100.00;102775.88;5248833;28;20078;-72
2023/10/04 09:31:11;;;;;;;18.35;3.55;;;;;;;18.57;100.00;102772.78;5244965;28;20031;-72
2023/10/04 09:33:43;;;;;;;16.70;3.97;;;;;;;18.76;100.00;102768.88;5253035;28;20632;-73
2023/10/04 09:36:31;;;;;;;18.08;3.97;;;;;;;18.76;100.00;102775.16;5249996;28;20032;-72
2023/10/04 09:39:07;;;;;;;13.75;3.75;;;;;;;18.81;100.00;102780.91;5253330;28;20069;-72
2023/10/04 09:41:41;;;;;;;16.60;3.85;;;;;;;18.95;100.00;102764.91;5249922;28;20041;-73
2023/10/04 09:44:20;;;;;;;24.17;3.88;;;;;;;18.96;100.00;102763.88;5251197;28;20483;-72
2023/10/04 09:46:59;;;;;;;14.13;3.10;;;;;;;18.65;100.00;102764.63;5251688;28;20027;-72
2023/10/04 09:49:33;;;;;;;22.00;5.07;;;;;;;18.55;100.00;102758.53;5249918;28;20063;-72
2023/10/04 09:52:07;;;;;;;21.85;3.88;;;;;;;18.66;100.00;102755.44;5254155;28;20031;-72
2023/10/04 09:54:38;;;;;;;18.10;3.83;;;;;;;18.58;100.00;102753.59;5249279;28;20103;-72
2023/10/04 09:57:12;;;;;;;18.13;4.50;;;;;;;18.49;100.00;102751.91;5251694;28;20111;-72
2023/10/04 09:59:44;;;;;;;19.48;4.03;;;;;;;18.33;100.00;102762.81;5249163;28;20066;-72
2023/10/04 10:02:17;;;;;;;14.65;3.90;;;;;;;18.30;100.00;102760.44;5250163;28;20038;-72
2023/10/04 10:04:50;;;;;;;21.38;4.15;;;;;;;18.42;100.00;102760.91;5254261;28;20026;-72
2023/10/04 10:07:25;;;;;;;13.77;3.60;;;;;;;18.50;100.00;102763.63;5248012;28;20017;-72
2023/10/04 10:10:10;;;;;;;20.67;3.83;;;;;;;18.59;100.00;102763.44;5253300;28;20027;-73
2023/10/04 10:12:43;;;;;;;17.38;4.05;;;;;;;18.74;100.00;102769.06;5252998;28;20080;-72
2023/10/04 10:15:14;;;;;;;15.13;3.97;;;;;;;18.90;100.00;102770.88;5245978;28;20008;-72
2023/10/04 10:17:46;;;;;;;18.45;3.60;;;;;;;18.94;100.00;102769.50;5242737;28;20035;-73
2023/10/04 10:20:19;;;;;;;14.90;3.88;;;;;;;18.71;100.00;102779.41;5247126;28;20501;-72
2023/10/04 10:22:58;;;;;;;14.80;3.92;;;;;;;18.60;100.00;102770.56;5252403;28;20027;-73
2023/10/04 10:25:32;;;;;;;19.15;4.57;;;;;;;18.45;100.00;102771.44;5242321;28;20385;-72
2023/10/04 10:28:04;;;;;;;14.15;3.40;;;;;;;18.46;100.00;102770.44;5247072;28;20024;-73
2023/10/04 10:30:36;;;;;;;15.55;3.72;;;;;;;18.51;100.00;102770.75;5246716;28;20044;-73
2023/10/04 10:33:07;;;;;;;15.35;3.63;;;;;;;18.64;100.00;102765.66;5240882;28;20016;-72
2023/10/04 10:35:52;;;;;;;15.40;3.60;;;;;;;18.64;100.00;102765.66;5241144;28;20055;-73
2023/10/04 10:38:44;;;;;;;;;;;;;;;18.84;100.00;102763.41;5244850;28;20035;-74
2023/10/04 10:41:27;;;;;;;20.35;4.30;;;;;;;18.89;100.00;102761.03;5244147;28;19918;-72
2023/10/04 10:44:11;;;;;;;15.60;3.70;;;;;;;18.83;100.00;102769.88;5236753;28;20032;-72
2023/10/04 10:46:54;;;;;;;18.27;3.95;;;;;;;18.97;100.00;102760.13;5244491;28;20020;-73
2023/10/04 10:49:40;;;;;;;15.13;3.83;;;;;;;19.27;100.00;102753.03;5241420;28;20031;-73
2023/10/04 10:52:27;;;;;;;11.88;3.08;;;;;;;19.36;100.00;102751.97;5244861;28;20100;-72
2023/10/04 10:54:59;;;;;;;13.15;3.47;;;;;;;19.47;100.00;102751.56;5240728;28;20104;-73
2023/10/04 10:57:30;;;;;;;17.13;3.30;;;;;;;19.53;100.00;102759.03;5246742;28;20020;-72
2023/10/04 11:00:13;;;;;;;14.75;3.22;;;;;;;19.60;100.00;102751.88;5254107;28;20027;-72
2023/10/04 11:02:44;;;;;;;14.65;3.33;;;;;;;19.72;100.00;102737.81;5251037;28;20058;-72
2023/10/04 11:05:17;;;;;;;10.25;2.90;;;;;;;19.76;100.00;102742.72;5246553;28;20036;-73
2023/10/04 11:07:49;;;;;;;12.25;3.65;;;;;;;19.77;100.00;102740.84;5245592;28;20089;-73
2023/10/04 11:10:23;;;;;;;15.52;3.63;;;;;;;19.80;100.00;102746.81;5245905;28;20107;-73
2023/10/04 11:12:55;;;;;;;12.57;2.83;;;;;;;19.81;100.00;102748.47;5251461;28;20047;-73
2023/10/04 11:15:26;;;;;;;14.43;3.35;;;;;;;19.59;100.00;102738.41;5246555;28;20024;-73
2023/10/04 11:17:57;;;;;;;12.13;2.90;;;;;;;19.55;100.00;102735.19;5245468;28;20023;-72
2023/10/04 11:20:31;;;;;;;11.85;2.75;;;;;;;19.50;100.00;102742.22;5250756;28;20024;-73
2023/10/04 11:23:01;;;;;;;13.88;3.45;;;;;;;19.41;100.00;102738.69;5253601;28;20688;-72
2023/10/04 11:25:32;;;;;;;16.25;3.30;;;;;;;19.39;100.00;102730.69;5246375;28;20557;-72
2023/10/04 11:28:04;;;;;;;19.88;3.83;;;;;;;19.31;100.00;102732.63;5246031;28;20021;-69
2023/10/04 11:30:35;;;;;;;10.38;3.30;;;;;;;19.24;100.00;102726.19;5247015;28;20059;-73
2023/10/04 11:33:05;;;;;;;15.07;2.80;;;;;;;19.23;100.00;102725.34;5251916;28;20466;-73